createdAt,value
2019-05-02T00:00:54.907Z,0.00
2019-05-02T00:01:54.854Z,0.00
2019-05-02T00:02:54.845Z,0.00
2019-05-02T00:03:54.839Z,0.00
2019-05-02T00:04:55.924Z,0.00
2019-05-02T00:05:54.847Z,0.00
2019-05-02T00:06:54.800Z,0.00
2019-05-02T00:07:58.522Z,0.00
2019-05-02T00:08:54.789Z,0.00
2019-05-02T00:09:54.775Z,0.00
2019-05-02T00:10:54.817Z,0.00
2019-05-02T00:11:58.854Z,0.00
2019-05-02T00:12:54.738Z,0.00
2019-05-02T00:13:54.723Z,0.00
2019-05-02T00:14:56.494Z,0.00
2019-05-02T00:15:55.733Z,0.00
2019-05-02T00:16:54.695Z,0.00
2019-05-02T00:17:56.800Z,0.00
2019-05-02T00:18:55.679Z,0.00
2019-05-02T00:19:54.675Z,0.00
2019-05-02T00:20:57.034Z,0.00
2019-05-02T00:21:55.636Z,0.00
2019-05-02T00:22:54.651Z,0.00
2019-05-02T00:23:59.083Z,0.00
2019-05-02T00:24:55.615Z,0.00
2019-05-02T00:25:54.637Z,0.00
2019-05-02T00:26:56.121Z,0.00
2019-05-02T00:27:55.578Z,0.00
2019-05-02T00:28:54.576Z,0.00
2019-05-02T00:29:58.682Z,0.00
2019-05-02T00:30:55.569Z,0.00
2019-05-02T00:31:54.538Z,0.00
2019-05-02T00:32:58.257Z,0.00
2019-05-02T00:33:55.525Z,0.00
2019-05-02T00:34:54.503Z,0.00
2019-05-02T00:35:54.527Z,0.00
2019-05-02T00:36:54.484Z,0.00
2019-05-02T00:37:57.394Z,0.00
2019-05-02T00:38:55.454Z,0.00
2019-05-02T00:39:54.452Z,0.00
2019-05-02T00:40:57.416Z,0.00
2019-05-02T00:41:55.433Z,0.00
2019-05-02T00:42:58.275Z,0.00
2019-05-02T00:43:55.413Z,0.00
2019-05-02T00:44:54.404Z,0.00
2019-05-02T00:45:55.094Z,0.00
2019-05-02T00:46:55.390Z,0.00
2019-05-02T00:47:54.365Z,0.00
2019-05-02T00:48:59.834Z,0.00
2019-05-02T00:49:55.355Z,0.00
2019-05-02T00:50:54.365Z,0.00
2019-05-02T00:51:56.568Z,0.00
2019-05-02T00:52:55.315Z,0.00
2019-05-02T00:53:54.303Z,0.00
2019-05-02T00:54:54.934Z,0.00
2019-05-02T00:55:54.335Z,0.00
2019-05-02T00:56:54.280Z,0.00
2019-05-02T00:57:55.651Z,0.00
2019-05-02T00:58:54.256Z,0.00
2019-05-02T00:59:54.248Z,0.00
2019-05-02T01:00:54.885Z,0.00
2019-05-02T01:01:54.260Z,0.00
2019-05-02T01:02:54.216Z,0.00
2019-05-02T01:03:54.200Z,0.00
2019-05-02T01:04:54.198Z,0.00
2019-05-02T01:05:54.176Z,0.00
2019-05-02T01:06:54.198Z,0.00
2019-05-02T01:07:56.032Z,0.00
2019-05-02T01:08:55.149Z,0.00
2019-05-02T01:09:54.139Z,0.00
2019-05-02T01:10:56.766Z,0.00
2019-05-02T01:11:54.138Z,0.00
2019-05-02T01:12:54.112Z,0.00
2019-05-02T01:13:55.811Z,0.00
2019-05-02T01:14:54.083Z,0.00
2019-05-02T01:15:54.071Z,0.00
2019-05-02T01:16:54.785Z,0.00
2019-05-02T01:17:54.051Z,0.00
2019-05-02T01:18:54.056Z,0.00
2019-05-02T01:19:54.037Z,0.00
2019-05-02T01:20:58.139Z,0.00
2019-05-02T01:21:55.041Z,0.00
2019-05-02T01:22:54.003Z,0.00
2019-05-02T01:23:53.984Z,0.00
2019-05-02T01:24:53.995Z,0.00
2019-05-02T01:25:54.577Z,0.00
2019-05-02T01:26:53.989Z,0.00
2019-05-02T01:27:53.947Z,0.00
2019-05-02T01:28:55.547Z,0.00
2019-05-02T01:29:53.926Z,0.00
2019-05-02T01:30:53.916Z,0.00
2019-05-02T01:31:54.691Z,0.00
2019-05-02T01:32:53.891Z,0.00
2019-05-02T01:33:53.880Z,0.00
2019-05-02T01:34:54.314Z,0.00
2019-05-02T01:35:53.865Z,0.00
2019-05-02T01:36:53.883Z,0.00
2019-05-02T01:37:54.930Z,0.00
2019-05-02T01:38:53.828Z,0.00
2019-05-02T01:39:53.822Z,0.00
2019-05-02T01:40:54.761Z,0.00
2019-05-02T01:41:53.834Z,0.00
2019-05-02T01:42:53.785Z,0.00
2019-05-02T01:43:54.869Z,0.00
2019-05-02T01:44:54.757Z,0.00
2019-05-02T01:45:53.757Z,0.00
2019-05-02T01:46:53.974Z,0.00
2019-05-02T01:47:53.732Z,0.00
2019-05-02T01:48:53.725Z,0.00
2019-05-02T01:49:57.352Z,0.00
2019-05-02T01:50:54.703Z,0.00
2019-05-02T01:51:53.732Z,0.00
2019-05-02T01:52:58.404Z,0.00
2019-05-02T01:53:54.670Z,0.00
2019-05-02T01:54:53.667Z,0.00
2019-05-02T01:55:57.621Z,0.00
2019-05-02T01:56:54.698Z,0.00
2019-05-02T01:57:53.626Z,0.00
2019-05-02T01:58:57.823Z,0.00
2019-05-02T01:59:54.635Z,0.00
2019-05-02T02:00:53.599Z,0.00
2019-05-02T02:01:57.970Z,0.00
2019-05-02T02:02:54.593Z,0.00
2019-05-02T02:03:53.565Z,0.00
2019-05-02T02:04:56.892Z,0.00
2019-05-02T02:05:53.549Z,0.00
2019-05-02T02:06:53.543Z,0.00
2019-05-02T02:07:55.459Z,0.00
2019-05-02T02:08:53.508Z,0.00
2019-05-02T02:09:53.497Z,0.00
2019-05-02T02:10:56.603Z,0.00
2019-05-02T02:11:53.474Z,0.00
2019-05-02T02:13:03.344Z,0.00
2019-05-02T02:13:54.455Z,0.00
2019-05-02T02:14:55.440Z,0.00
2019-05-02T02:15:53.433Z,0.00
2019-05-02T02:16:53.437Z,0.00
2019-05-02T02:17:53.436Z,0.00
2019-05-02T02:18:53.398Z,0.00
2019-05-02T02:19:53.398Z,0.00
2019-05-02T02:20:53.383Z,0.00
2019-05-02T02:21:57.416Z,0.00
2019-05-02T02:22:54.390Z,0.00
2019-05-02T02:23:53.392Z,0.00
2019-05-02T02:24:55.886Z,0.00
2019-05-02T02:25:54.332Z,0.00
2019-05-02T02:26:53.332Z,0.00
2019-05-02T02:27:54.902Z,0.00
2019-05-02T02:28:54.295Z,0.00
2019-05-02T02:29:53.327Z,0.00
2019-05-02T02:30:57.967Z,0.00
2019-05-02T02:31:54.264Z,0.00
2019-05-02T02:32:53.288Z,0.00
2019-05-02T02:33:53.255Z,0.00
2019-05-02T02:34:53.250Z,0.00
2019-05-02T02:35:53.244Z,0.00
2019-05-02T02:36:53.219Z,0.00
2019-05-02T02:37:55.668Z,0.00
2019-05-02T02:38:53.231Z,0.00
2019-05-02T02:39:54.186Z,0.00
2019-05-02T02:40:53.178Z,0.00
2019-05-02T02:41:54.245Z,0.00
2019-05-02T02:42:53.193Z,0.00
2019-05-02T02:43:54.816Z,0.00
2019-05-02T02:44:54.150Z,0.00
2019-05-02T02:45:57.596Z,0.00
2019-05-02T02:46:54.126Z,0.00
2019-05-02T02:48:00.048Z,0.00
2019-05-02T02:48:54.099Z,0.00
2019-05-02T02:49:56.132Z,0.00
2019-05-02T02:50:54.084Z,0.00
2019-05-02T02:51:57.913Z,0.00
2019-05-02T02:52:54.080Z,0.00
2019-05-02T02:54:02.652Z,0.00
2019-05-02T02:54:54.028Z,0.00
2019-05-02T02:56:01.148Z,0.00
2019-05-02T02:56:54.008Z,0.00
2019-05-02T02:57:58.417Z,0.00
2019-05-02T02:58:54.023Z,0.00
2019-05-02T02:59:52.987Z,0.00
2019-05-02T03:00:52.968Z,0.00
2019-05-02T03:01:52.947Z,0.00
2019-05-02T03:02:52.948Z,0.00
2019-05-02T03:03:52.959Z,0.00
2019-05-02T03:04:52.928Z,0.00
2019-05-02T03:05:58.738Z,0.00
2019-05-02T03:06:53.899Z,0.00
2019-05-02T03:07:52.890Z,0.00
2019-05-02T03:08:52.907Z,0.00
2019-05-02T03:09:52.871Z,0.00
2019-05-02T03:10:52.854Z,0.00
2019-05-02T03:11:56.255Z,0.00
2019-05-02T03:12:53.837Z,0.00
2019-05-02T03:13:54.181Z,0.00
2019-05-02T03:14:53.814Z,0.00
2019-05-02T03:15:52.882Z,0.00
2019-05-02T03:16:52.795Z,0.00
2019-05-02T03:17:52.805Z,0.00
2019-05-02T03:18:52.857Z,0.00
2019-05-02T03:19:54.289Z,0.00
2019-05-02T03:20:53.745Z,0.00
2019-05-02T03:21:54.556Z,0.00
2019-05-02T03:22:53.734Z,0.00
2019-05-02T03:24:01.640Z,0.00
2019-05-02T03:24:53.703Z,0.00
2019-05-02T03:25:52.722Z,0.00
2019-05-02T03:26:55.139Z,0.00
2019-05-02T03:27:52.676Z,0.00
2019-05-02T03:28:58.472Z,0.00
2019-05-02T03:29:53.654Z,0.00
2019-05-02T03:30:52.645Z,0.00
2019-05-02T03:32:11.616Z,0.00
2019-05-02T03:33:06.702Z,0.00
2019-05-02T03:33:59.666Z,0.00
2019-05-02T03:34:54.337Z,0.00
2019-05-02T03:35:52.593Z,0.00
2019-05-02T03:36:52.582Z,0.00
2019-05-02T03:37:53.173Z,0.00
2019-05-02T03:38:52.591Z,0.00
2019-05-02T03:39:57.402Z,0.00
2019-05-02T03:40:53.533Z,0.00
2019-05-02T03:41:55.458Z,0.00
2019-05-02T03:42:53.517Z,0.00
2019-05-02T03:44:09.817Z,0.00
2019-05-02T03:44:56.194Z,0.00
2019-05-02T03:45:53.503Z,0.00
2019-05-02T03:46:54.517Z,0.00
2019-05-02T03:47:53.494Z,0.00
2019-05-02T03:48:52.454Z,0.00
2019-05-02T03:49:52.624Z,0.00
2019-05-02T03:50:52.435Z,0.00
2019-05-02T03:51:55.867Z,0.00
2019-05-02T03:52:53.472Z,0.00
2019-05-02T03:53:52.400Z,0.00
2019-05-02T03:54:52.806Z,0.00
2019-05-02T03:55:52.397Z,0.00
2019-05-02T03:56:53.428Z,0.00
2019-05-02T03:57:52.359Z,0.00
2019-05-02T03:58:56.000Z,0.00
2019-05-02T03:59:53.368Z,0.00
2019-05-02T04:01:00.801Z,0.00
2019-05-02T04:01:53.314Z,5.62
2019-05-02T04:02:58.911Z,5.62
2019-05-02T04:03:53.309Z,5.62
2019-05-02T04:04:54.098Z,5.62
2019-05-02T04:05:53.271Z,5.62
2019-05-02T04:06:54.983Z,5.62
2019-05-02T04:07:53.253Z,5.62
2019-05-02T04:08:58.856Z,5.62
2019-05-02T04:09:53.264Z,5.62
2019-05-02T04:10:58.967Z,5.62
2019-05-02T04:11:53.218Z,5.62
2019-05-02T04:12:53.014Z,5.62
2019-05-02T04:13:53.188Z,5.62
2019-05-02T04:14:55.319Z,5.62
2019-05-02T04:15:52.173Z,5.62
2019-05-02T04:16:55.246Z,11.25
2019-05-02T04:17:53.151Z,11.25
2019-05-02T04:18:55.677Z,11.25
2019-05-02T04:19:53.151Z,11.25
2019-05-02T04:20:52.168Z,11.25
2019-05-02T04:21:54.880Z,11.25
2019-05-02T04:22:52.103Z,16.88
2019-05-02T04:23:52.087Z,16.88
2019-05-02T04:24:56.785Z,16.88
2019-05-02T04:25:53.060Z,22.50
2019-05-02T04:26:55.888Z,22.50
2019-05-02T04:27:52.050Z,22.50
2019-05-02T04:28:53.679Z,22.50
2019-05-02T04:29:52.056Z,28.12
2019-05-02T04:30:53.959Z,28.12
2019-05-02T04:31:51.999Z,28.12
2019-05-02T04:32:55.936Z,28.12
2019-05-02T04:33:51.994Z,33.75
2019-05-02T04:34:55.149Z,39.38
2019-05-02T04:35:52.963Z,39.38
2019-05-02T04:37:00.255Z,39.38
2019-05-02T04:37:52.941Z,45.00
2019-05-02T04:38:52.740Z,45.00
2019-05-02T04:39:53.761Z,39.38
2019-05-02T04:40:52.931Z,39.38
2019-05-02T04:41:51.896Z,45.00
2019-05-02T04:43:02.039Z,45.00
2019-05-02T04:43:57.594Z,39.38
2019-05-02T04:45:11.618Z,45.00
2019-05-02T04:45:57.426Z,45.00
2019-05-02T04:46:59.816Z,45.00
2019-05-02T04:47:58.458Z,50.62
2019-05-02T04:48:53.301Z,73.12
2019-05-02T04:49:52.208Z,84.38
2019-05-02T04:50:52.163Z,84.38
2019-05-02T04:52:01.494Z,84.38
2019-05-02T04:52:54.117Z,90.00
2019-05-02T04:53:51.788Z,78.75
2019-05-02T04:54:51.786Z,73.12
2019-05-02T04:56:01.948Z,84.38
2019-05-02T04:56:55.314Z,101.25
2019-05-02T04:57:51.727Z,90.00
2019-05-02T04:58:51.732Z,90.00
2019-05-02T05:00:02.560Z,90.00
2019-05-02T05:00:58.009Z,84.38
2019-05-02T05:01:57.176Z,84.38
2019-05-02T05:02:53.238Z,84.38
2019-05-02T05:03:58.672Z,90.00
2019-05-02T05:04:52.664Z,95.62
2019-05-02T05:05:51.683Z,90.00
2019-05-02T05:06:56.076Z,90.00
2019-05-02T05:07:52.620Z,84.38
2019-05-02T05:08:51.618Z,84.38
2019-05-02T05:09:57.878Z,90.00
2019-05-02T05:10:52.639Z,101.25
2019-05-02T05:11:53.879Z,118.12
2019-05-02T05:12:52.562Z,118.12
2019-05-02T05:13:52.457Z,118.12
2019-05-02T05:14:52.625Z,118.12
2019-05-02T05:15:52.082Z,118.12
2019-05-02T05:16:55.505Z,112.50
2019-05-02T05:17:52.586Z,112.50
2019-05-02T05:18:53.206Z,106.88
2019-05-02T05:19:51.495Z,106.88
2019-05-02T05:20:52.909Z,123.75
2019-05-02T05:21:51.464Z,123.75
2019-05-02T05:22:51.464Z,123.75
2019-05-02T05:23:51.763Z,118.12
2019-05-02T05:24:51.438Z,123.75
2019-05-02T05:25:55.751Z,129.38
2019-05-02T05:26:52.456Z,140.62
2019-05-02T05:28:05.865Z,140.62
2019-05-02T05:28:51.376Z,129.38
2019-05-02T05:29:53.583Z,129.38
2019-05-02T05:30:54.405Z,129.38
2019-05-02T05:31:55.032Z,118.12
2019-05-02T05:32:52.342Z,123.75
2019-05-02T05:33:51.326Z,118.12
2019-05-02T05:34:51.315Z,112.50
2019-05-02T05:35:52.650Z,123.75
2019-05-02T05:36:51.326Z,123.75
2019-05-02T05:37:52.893Z,151.88
2019-05-02T05:38:51.271Z,157.50
2019-05-02T05:39:52.712Z,163.12
2019-05-02T05:40:51.248Z,168.75
2019-05-02T05:41:52.401Z,163.12
2019-05-02T05:42:51.222Z,163.12
2019-05-02T05:43:53.606Z,168.75
2019-05-02T05:44:51.203Z,163.12
2019-05-02T05:45:56.311Z,157.50
2019-05-02T05:46:52.212Z,157.50
2019-05-02T05:47:56.525Z,157.50
2019-05-02T05:48:52.212Z,129.38
2019-05-02T05:49:52.144Z,123.75
2019-05-02T05:50:52.144Z,140.62
2019-05-02T05:51:54.272Z,157.50
2019-05-02T05:52:52.173Z,168.75
2019-05-02T05:53:52.309Z,163.12
2019-05-02T05:54:52.116Z,163.12
2019-05-02T05:55:53.565Z,157.50
2019-05-02T05:56:52.104Z,157.50
2019-05-02T05:57:59.691Z,168.75
2019-05-02T05:58:52.628Z,168.75
2019-05-02T05:59:51.065Z,163.12
2019-05-02T06:00:55.414Z,163.12
2019-05-02T06:01:52.046Z,163.12
2019-05-02T06:02:56.258Z,168.75
2019-05-02T06:03:51.998Z,168.75
2019-05-02T06:04:55.194Z,180.00
2019-05-02T06:05:51.983Z,180.00
2019-05-02T06:06:54.127Z,196.88
2019-05-02T06:07:51.962Z,185.62
2019-05-02T06:08:54.246Z,196.88
2019-05-02T06:09:50.938Z,202.50
2019-05-02T06:10:50.936Z,180.00
2019-05-02T06:11:55.491Z,180.00
2019-05-02T06:12:50.906Z,180.00
2019-05-02T06:13:50.895Z,191.25
2019-05-02T06:14:50.895Z,196.88
2019-05-02T06:16:01.574Z,202.50
2019-05-02T06:16:53.173Z,202.50
2019-05-02T06:17:50.858Z,208.12
2019-05-02T06:18:50.845Z,202.50
2019-05-02T06:19:53.695Z,191.25
2019-05-02T06:20:50.824Z,185.62
2019-05-02T06:21:50.837Z,196.88
2019-05-02T06:22:54.908Z,208.12
2019-05-02T06:23:51.796Z,225.00
2019-05-02T06:24:52.103Z,202.50
2019-05-02T06:25:50.772Z,213.75
2019-05-02T06:26:51.818Z,208.12
2019-05-02T06:27:50.746Z,213.75
2019-05-02T06:28:50.746Z,219.38
2019-05-02T06:29:51.095Z,202.50
2019-05-02T06:30:51.716Z,213.75
2019-05-02T06:31:50.729Z,241.88
2019-05-02T06:32:54.938Z,247.50
2019-05-02T06:33:51.678Z,253.12
2019-05-02T06:34:50.675Z,213.75
2019-05-02T06:35:51.847Z,213.75
2019-05-02T06:36:51.686Z,230.62
2019-05-02T06:37:51.977Z,258.75
2019-05-02T06:38:52.337Z,270.00
2019-05-02T06:39:51.621Z,270.00
2019-05-02T06:40:50.610Z,270.00
2019-05-02T06:41:52.045Z,264.38
2019-05-02T06:42:51.615Z,258.75
2019-05-02T06:43:50.588Z,286.88
2019-05-02T06:44:54.876Z,303.75
2019-05-02T06:45:51.563Z,309.38
2019-05-02T06:46:50.549Z,309.38
2019-05-02T06:47:50.562Z,292.50
2019-05-02T06:48:52.219Z,320.62
2019-05-02T06:49:50.515Z,309.38
2019-05-02T06:50:50.507Z,320.62
2019-05-02T06:51:50.966Z,331.88
2019-05-02T06:52:51.510Z,331.88
2019-05-02T06:53:50.471Z,343.12
2019-05-02T06:54:54.080Z,354.38
2019-05-02T06:55:51.450Z,331.88
2019-05-02T06:56:50.458Z,320.62
2019-05-02T06:57:51.782Z,331.88
2019-05-02T06:58:50.415Z,354.38
2019-05-02T06:59:54.673Z,365.62
2019-05-02T07:00:58.191Z,393.75
2019-05-02T07:01:52.392Z,433.12
2019-05-02T07:02:51.398Z,433.12
2019-05-02T07:03:50.364Z,427.50
2019-05-02T07:04:54.753Z,433.12
2019-05-02T07:05:50.347Z,461.25
2019-05-02T07:06:58.547Z,461.25
2019-05-02T07:07:51.445Z,427.50
2019-05-02T07:08:50.434Z,399.38
2019-05-02T07:09:50.346Z,399.38
2019-05-02T07:10:50.319Z,399.38
2019-05-02T07:11:56.908Z,365.62
2019-05-02T07:13:02.239Z,365.62
2019-05-02T07:13:51.332Z,360.00
2019-05-02T07:14:50.247Z,337.50
2019-05-02T07:15:50.238Z,348.75
2019-05-02T07:16:54.495Z,371.25
2019-05-02T07:17:51.245Z,388.12
2019-05-02T07:18:50.205Z,444.38
2019-05-02T07:19:50.193Z,461.25
2019-05-02T07:20:50.184Z,444.38
2019-05-02T07:21:53.053Z,438.75
2019-05-02T07:22:51.186Z,489.38
2019-05-02T07:23:53.673Z,466.88
2019-05-02T07:24:50.145Z,427.50
2019-05-02T07:25:50.128Z,427.50
2019-05-02T07:26:52.069Z,421.88
2019-05-02T07:27:51.133Z,399.38
2019-05-02T07:28:50.095Z,405.00
2019-05-02T07:29:52.209Z,466.88
2019-05-02T07:30:51.078Z,534.38
2019-05-02T07:31:50.080Z,523.12
2019-05-02T07:32:50.083Z,500.62
2019-05-02T07:33:50.047Z,489.38
2019-05-02T07:34:50.047Z,517.50
2019-05-02T07:35:50.025Z,528.75
2019-05-02T07:36:50.017Z,483.75
2019-05-02T07:37:50.128Z,511.88
2019-05-02T07:38:49.995Z,483.75
2019-05-02T07:39:49.990Z,483.75
2019-05-02T07:40:53.131Z,556.88
2019-05-02T07:41:49.963Z,545.62
2019-05-02T07:42:49.954Z,528.75
2019-05-02T07:43:52.187Z,562.50
2019-05-02T07:44:50.930Z,528.75
2019-05-02T07:45:49.924Z,540.00
2019-05-02T07:46:51.927Z,585.00
2019-05-02T07:47:49.901Z,590.62
2019-05-02T07:48:54.436Z,618.75
2019-05-02T07:49:49.882Z,624.38
2019-05-02T07:50:50.318Z,596.25
2019-05-02T07:51:52.390Z,579.38
2019-05-02T07:52:50.851Z,635.62
2019-05-02T07:53:49.895Z,658.12
2019-05-02T07:54:49.825Z,618.75
2019-05-02T07:55:49.813Z,601.88
2019-05-02T07:56:53.437Z,635.62
2019-05-02T07:57:49.789Z,590.62
2019-05-02T07:58:49.814Z,562.50
2019-05-02T07:59:50.059Z,562.50
2019-05-02T08:00:49.763Z,568.12
2019-05-02T08:01:50.908Z,568.12
2019-05-02T08:02:49.739Z,675.00
2019-05-02T08:03:49.751Z,826.88
2019-05-02T08:04:49.718Z,826.88
2019-05-02T08:05:49.703Z,736.88
2019-05-02T08:06:49.693Z,663.75
2019-05-02T08:07:53.487Z,691.88
2019-05-02T08:08:50.696Z,720.00
2019-05-02T08:09:49.704Z,714.38
2019-05-02T08:10:53.843Z,708.75
2019-05-02T08:11:50.635Z,697.50
2019-05-02T08:12:49.629Z,686.25
2019-05-02T08:13:55.101Z,753.75
2019-05-02T08:14:50.604Z,781.88
2019-05-02T08:15:50.821Z,798.75
2019-05-02T08:16:49.583Z,781.88
2019-05-02T08:17:53.738Z,753.75
2019-05-02T08:18:50.598Z,714.38
2019-05-02T08:19:49.553Z,731.25
2019-05-02T08:20:51.030Z,781.88
2019-05-02T08:21:50.535Z,866.25
2019-05-02T08:22:50.413Z,810.00
2019-05-02T08:23:49.543Z,770.62
2019-05-02T08:24:49.504Z,748.12
2019-05-02T08:25:49.486Z,697.50
2019-05-02T08:26:53.345Z,753.75
2019-05-02T08:27:50.468Z,849.38
2019-05-02T08:28:51.961Z,742.50
2019-05-02T08:29:49.443Z,810.00
2019-05-02T08:30:49.435Z,843.75
2019-05-02T08:31:49.425Z,821.25
2019-05-02T08:32:49.413Z,855.00
2019-05-02T08:33:49.430Z,781.88
2019-05-02T08:34:51.881Z,815.62
2019-05-02T08:35:49.381Z,956.25
2019-05-02T08:36:49.372Z,1029.38
2019-05-02T08:37:49.390Z,1068.75
2019-05-02T08:38:53.692Z,1198.12
2019-05-02T08:39:50.338Z,1113.75
2019-05-02T08:40:49.791Z,1276.88
2019-05-02T08:41:51.235Z,1096.88
2019-05-02T08:42:50.334Z,990.00
2019-05-02T08:43:49.294Z,950.62
2019-05-02T08:44:51.160Z,1164.38
2019-05-02T08:45:49.290Z,1158.75
2019-05-02T08:46:51.519Z,1378.12
2019-05-02T08:47:49.288Z,1355.62
2019-05-02T08:48:50.838Z,1321.88
2019-05-02T08:49:54.358Z,1170.00
2019-05-02T08:50:50.219Z,1158.75
2019-05-02T08:51:49.222Z,1203.75
2019-05-02T08:52:49.230Z,1338.75
2019-05-02T08:53:52.146Z,1715.62
2019-05-02T08:54:50.177Z,1366.88
2019-05-02T08:55:49.167Z,1305.00
2019-05-02T08:56:53.279Z,1237.50
2019-05-02T08:57:50.176Z,1321.88
2019-05-02T08:58:49.928Z,1406.25
2019-05-02T08:59:49.137Z,1344.38
2019-05-02T09:00:49.128Z,1586.25
2019-05-02T09:01:49.801Z,1378.12
2019-05-02T09:02:49.126Z,1620.00
2019-05-02T09:03:55.525Z,1698.75
2019-05-02T09:04:58.377Z,1738.12
2019-05-02T09:05:50.076Z,1884.38
2019-05-02T09:06:53.141Z,1963.12
2019-05-02T09:07:50.090Z,1873.12
2019-05-02T09:08:51.510Z,1861.88
2019-05-02T09:09:49.019Z,2362.50
2019-05-02T09:10:49.014Z,2289.38
2019-05-02T09:12:07.124Z,2047.50
2019-05-02T09:12:51.931Z,2469.38
2019-05-02T09:13:49.003Z,2598.75
2019-05-02T09:14:48.976Z,2626.88
2019-05-02T09:15:51.276Z,2497.50
2019-05-02T09:16:48.955Z,2486.25
2019-05-02T09:17:52.687Z,2548.12
2019-05-02T09:18:51.868Z,1726.88
2019-05-02T09:20:00.384Z,2446.88
2019-05-02T09:20:52.712Z,2008.12
2019-05-02T09:21:52.163Z,1175.62
2019-05-02T09:22:52.106Z,1417.50
2019-05-02T09:23:51.759Z,2328.75
2019-05-02T09:24:48.868Z,2137.50
2019-05-02T09:25:48.850Z,2295.00
2019-05-02T09:26:48.850Z,2660.62
2019-05-02T09:27:48.832Z,2626.88
2019-05-02T09:28:48.846Z,2660.62
2019-05-02T09:29:48.814Z,2705.62
2019-05-02T09:30:48.801Z,3060.00
2019-05-02T09:31:48.794Z,2857.50
2019-05-02T09:32:48.780Z,2536.88
2019-05-02T09:33:48.802Z,1923.75
2019-05-02T09:34:48.774Z,2705.62
2019-05-02T09:35:48.747Z,1591.88
2019-05-02T09:36:48.746Z,1659.38
2019-05-02T09:37:48.733Z,2446.88
2019-05-02T09:38:53.153Z,1333.12
2019-05-02T09:39:49.732Z,1096.88
2019-05-02T09:40:52.531Z,1743.75
2019-05-02T09:41:49.686Z,1507.50
2019-05-02T09:42:53.568Z,2593.12
2019-05-02T09:43:49.664Z,2733.75
2019-05-02T09:44:53.371Z,1350.00
2019-05-02T09:45:51.847Z,1119.38
2019-05-02T09:46:53.085Z,1220.62
2019-05-02T09:47:57.253Z,1282.50
2019-05-02T09:48:51.841Z,1192.50
2019-05-02T09:49:50.381Z,1158.75
2019-05-02T09:50:48.623Z,1063.12
2019-05-02T09:51:50.334Z,1080.00
2019-05-02T09:52:49.575Z,1305.00
2019-05-02T09:53:48.563Z,1456.88
2019-05-02T09:54:48.552Z,2531.25
2019-05-02T09:55:55.019Z,2694.38
2019-05-02T09:56:49.532Z,2863.12
2019-05-02T09:57:48.619Z,3037.50
2019-05-02T09:58:49.361Z,2919.38
2019-05-02T09:59:50.504Z,3116.25
2019-05-02T10:00:49.518Z,3133.12
2019-05-02T10:01:48.478Z,3155.62
2019-05-02T10:02:48.472Z,3026.25
2019-05-02T10:03:48.454Z,2756.25
2019-05-02T10:04:48.447Z,2964.38
2019-05-02T10:05:48.470Z,1715.62
2019-05-02T10:06:48.430Z,1620.00
2019-05-02T10:07:48.767Z,2340.00
2019-05-02T10:08:48.407Z,2216.25
2019-05-02T10:09:48.398Z,1929.38
2019-05-02T10:10:48.415Z,1327.50
2019-05-02T10:11:48.375Z,1170.00
2019-05-02T10:12:48.367Z,973.12
2019-05-02T10:13:48.372Z,1001.25
2019-05-02T10:14:48.346Z,1265.62
2019-05-02T10:15:48.377Z,2238.75
2019-05-02T10:16:48.325Z,1321.88
2019-05-02T10:17:48.312Z,2531.25
2019-05-02T10:18:48.303Z,2615.62
2019-05-02T10:19:49.536Z,1468.12
2019-05-02T10:20:48.289Z,2446.88
2019-05-02T10:21:52.451Z,1507.50
2019-05-02T10:22:49.256Z,1603.12
2019-05-02T10:23:53.740Z,2469.38
2019-05-02T10:24:49.242Z,2823.75
2019-05-02T10:25:48.235Z,2981.25
2019-05-02T10:26:48.245Z,2992.50
2019-05-02T10:27:48.210Z,1417.50
2019-05-02T10:28:50.398Z,1749.38
2019-05-02T10:29:48.195Z,3279.38
2019-05-02T10:30:52.652Z,3245.62
2019-05-02T10:31:49.192Z,3020.62
2019-05-02T10:32:55.607Z,1861.88
2019-05-02T10:33:49.142Z,1912.50
2019-05-02T10:34:55.100Z,1715.62
2019-05-02T10:35:49.125Z,2092.50
2019-05-02T10:36:54.180Z,2902.50
2019-05-02T10:37:49.107Z,2221.88
2019-05-02T10:38:49.000Z,2812.50
2019-05-02T10:39:49.083Z,3211.88
2019-05-02T10:40:53.510Z,3510.00
2019-05-02T10:41:49.092Z,3521.25
2019-05-02T10:42:48.063Z,1760.62
2019-05-02T10:43:51.953Z,3431.25
2019-05-02T10:44:49.044Z,3268.12
2019-05-02T10:45:52.880Z,1670.62
2019-05-02T10:46:49.041Z,1411.88
2019-05-02T10:47:48.016Z,1771.88
2019-05-02T10:48:47.995Z,2840.62
2019-05-02T10:49:48.006Z,3155.62
2019-05-02T10:50:48.018Z,3178.12
2019-05-02T10:51:49.605Z,1569.38
2019-05-02T10:52:47.953Z,1389.38
2019-05-02T10:53:52.775Z,1288.12
2019-05-02T10:54:48.947Z,1175.62
2019-05-02T10:55:47.922Z,1333.12
2019-05-02T10:56:47.962Z,3048.75
2019-05-02T10:57:47.901Z,2553.75
2019-05-02T10:58:47.889Z,1580.62
2019-05-02T10:59:47.879Z,1884.38
2019-05-02T11:00:47.868Z,2773.12
2019-05-02T11:01:47.970Z,1591.88
2019-05-02T11:02:47.850Z,1845.00
2019-05-02T11:03:47.842Z,2401.88
2019-05-02T11:04:47.826Z,2047.50
2019-05-02T11:05:47.813Z,1552.50
2019-05-02T11:06:47.837Z,1440.00
2019-05-02T11:07:47.797Z,2047.50
2019-05-02T11:08:47.778Z,1434.38
2019-05-02T11:09:47.806Z,1563.75
2019-05-02T11:10:47.768Z,1946.25
2019-05-02T11:11:47.783Z,2469.38
2019-05-02T11:12:47.747Z,2880.00
2019-05-02T11:13:47.738Z,3150.00
2019-05-02T11:14:47.724Z,3420.00
2019-05-02T11:15:47.711Z,2936.25
2019-05-02T11:16:47.737Z,3031.88
2019-05-02T11:17:47.696Z,2098.12
2019-05-02T11:18:47.685Z,2778.75
2019-05-02T11:19:47.706Z,1783.12
2019-05-02T11:20:47.668Z,1490.62
2019-05-02T11:21:56.391Z,1681.88
2019-05-02T11:22:48.645Z,1935.00
2019-05-02T11:23:47.733Z,2086.88
2019-05-02T11:24:47.741Z,2137.50
2019-05-02T11:25:47.614Z,1749.38
2019-05-02T11:26:47.599Z,1586.25
2019-05-02T11:27:47.590Z,1603.12
2019-05-02T11:28:47.577Z,2126.25
2019-05-02T11:29:47.601Z,1468.12
2019-05-02T11:30:47.564Z,1372.50
2019-05-02T11:31:47.544Z,1591.88
2019-05-02T11:32:47.546Z,1496.25
2019-05-02T11:33:47.536Z,1620.00
2019-05-02T11:34:47.548Z,1558.12
2019-05-02T11:35:48.934Z,1766.25
2019-05-02T11:36:47.504Z,1861.88
2019-05-02T11:37:47.490Z,3335.62
2019-05-02T11:38:54.006Z,2733.75
2019-05-02T11:39:52.663Z,1451.25
2019-05-02T11:40:48.458Z,1260.00
2019-05-02T11:41:47.460Z,1350.00
2019-05-02T11:42:47.442Z,1833.75
2019-05-02T11:43:47.435Z,1130.62
2019-05-02T11:44:47.419Z,1096.88
2019-05-02T11:45:47.442Z,1580.62
2019-05-02T11:46:47.402Z,1850.62
2019-05-02T11:47:47.392Z,2745.00
2019-05-02T11:48:57.270Z,2902.50
2019-05-02T11:49:52.030Z,3105.00
2019-05-02T11:50:48.384Z,3408.75
2019-05-02T11:51:52.691Z,3375.00
2019-05-02T11:52:48.353Z,3324.38
2019-05-02T11:53:47.338Z,3003.75
2019-05-02T11:54:48.655Z,2750.62
2019-05-02T11:55:47.348Z,2542.50
2019-05-02T11:56:49.286Z,1462.50
2019-05-02T11:57:47.303Z,1406.25
2019-05-02T11:58:48.413Z,1350.00
2019-05-02T11:59:47.272Z,1243.12
2019-05-02T12:00:49.668Z,1260.00
2019-05-02T12:01:59.018Z,1248.75
2019-05-02T12:02:49.157Z,1096.88
2019-05-02T12:03:47.255Z,1119.38
2019-05-02T12:04:51.868Z,1186.88
2019-05-02T12:05:48.278Z,1400.62
2019-05-02T12:06:50.071Z,1535.62
2019-05-02T12:07:48.182Z,1496.25
2019-05-02T12:08:49.382Z,1400.62
2019-05-02T12:09:52.050Z,1451.25
2019-05-02T12:10:48.178Z,2205.00
2019-05-02T12:11:47.456Z,1749.38
2019-05-02T12:12:47.135Z,2261.25
2019-05-02T12:13:51.409Z,2604.38
2019-05-02T12:14:48.114Z,1918.12
2019-05-02T12:15:47.142Z,1389.38
2019-05-02T12:16:47.094Z,1355.62
2019-05-02T12:17:47.088Z,1023.75
2019-05-02T12:18:47.077Z,984.38
2019-05-02T12:19:47.064Z,1575.00
2019-05-02T12:20:47.079Z,1344.38
2019-05-02T12:21:47.053Z,1603.12
2019-05-02T12:22:47.066Z,1479.38
2019-05-02T12:23:47.037Z,1305.00
2019-05-02T12:24:47.019Z,2081.25
2019-05-02T12:25:47.032Z,2885.62
2019-05-02T12:26:46.993Z,1755.00
2019-05-02T12:27:46.988Z,2261.25
2019-05-02T12:28:46.993Z,1428.75
2019-05-02T12:29:50.225Z,1366.88
2019-05-02T12:30:47.981Z,1271.25
2019-05-02T12:31:47.185Z,1198.12
2019-05-02T12:32:46.951Z,1220.62
2019-05-02T12:33:46.918Z,2542.50
2019-05-02T12:34:46.914Z,1665.00
2019-05-02T12:35:46.926Z,2255.62
2019-05-02T12:36:46.886Z,1417.50
2019-05-02T12:37:47.205Z,2255.62
2019-05-02T12:38:46.868Z,1816.88